El Paso, TX (88524)

3:17 AM MDT on September 20, 2014 (GMT -0600)
SAN CLEMENTE ESTATES | Change Station
CLOSE
Current Station
Personal Weather Station
Location: EL PASO, TX
Elevation: 4606 ft
Nearby Weather Stations

Elev 4606 ft 31.82 °N, 106.50 °W | Updated 2 seconds ago

Partly Cloudy
Partly Cloudy
69.8 °F
Feels Like 69.8 °F
N
0.0
Wind Variable Wind from NE
Gusts 0.0 mph

Today
High -- | Low -- °F
--% Chance of Precip.
Yesterday
High -- | Low -- °F
Precip. -- in
6:52 AM 7:04 PM
Waning Crescent, 13% visible
Pressure 29.80 in
Visibility 10.0 miles
Clouds Few 3000 ft
Dew Point 62 °F
Humidity 77%
Rainfall 0.00 in
Snow Depth Not available.
UV 0.0 out of 12
Pollen 5.50 out of 12
Air Quality Not available.
Flu Activity Not available.
METAR KELP 200851Z 03003KT 10SM FEW030 21/18 A3000 RMK AO2 SLP089 T02110183 58000

More Conditions Fewer Conditions

Pressure 29.80 in
Visibility 10.0 miles
Clouds Few 3000 ft
Dew Point 62 °F
Humidity 77%
Rainfall 0.00 in
Snow Depth Not available.
UV 0.0 out of 12
Pollen 5.50 out of 12
Air Quality Not available.
Flu Activity Not available.
METAR KELP 200851Z 03003KT 10SM FEW030 21/18 A3000 RMK AO2 SLP089 T02110183 58000

More Conditions Fewer Conditions

10-Day Weather Forecast

Almanac

Astronomy

Sep. 20, 2014 Rise Set
Actual Time 6:52 AM MDT 7:04 PM MDT
Civil Twilight 6:28 AM MDT 7:29 PM MDT
Nautical Twilight 5:59 AM MDT 7:57 PM MDT
Astronomical Twilight 5:31 AM MDT 8:26 PM MDT
Moon 3:44 AM MDT 5:01 PM MDT
Length of Visible Light 13h 00m
Length of Day
12h 12m
Tomorrow will be 1m 56s shorter.
Waning Crescent, 13% of the Moon is Illuminated
Today
Waning Crescent
Sep 24
New
Oct 1
First Quarter
Oct 8
Full
Oct 15
Last Quarter

Today's Extremes

State Highs State Lows

Community

WunderPhotos

Upload Photos

1,754,794 photos uploaded!

WunderBlogs® & News

Nearby

Snow Depth

Station Depth Elevation
No new snow has been reported.

Earthquake Activity

City Distance Mag. Time & Date
No recent earthquake activity has been reported nearby.
Minimum magnitude displayed is 2.5.

Coastal Water Temperatures

Place Temperature
No Stations Reporting

Nearby Weather Stations